sensor_id;sensor_type;location;lat;lon;timestamp;pressure;altitude;pressure_sealevel;temperature;humidity
60589;BME280;46421;48.610;9.334;2023-01-19T00:01:32;96955.88;;;-1.44;89.98
60589;BME280;46421;48.610;9.334;2023-01-19T00:03:58;96964.66;;;-1.45;90.19
60589;BME280;46421;48.610;9.334;2023-01-19T00:06:23;96958.25;;;-1.31;89.85
60589;BME280;46421;48.610;9.334;2023-01-19T00:08:49;96958.88;;;-1.49;90.70
60589;BME280;46421;48.610;9.334;2023-01-19T00:11:14;96962.16;;;-1.47;91.52
60589;BME280;46421;48.610;9.334;2023-01-19T00:13:42;96961.56;;;-1.50;90.91
60589;BME280;46421;48.610;9.334;2023-01-19T00:16:14;96966.41;;;-1.46;90.56
60589;BME280;46421;48.610;9.334;2023-01-19T00:18:42;96964.38;;;-1.42;89.97
60589;BME280;46421;48.610;9.334;2023-01-19T00:21:07;96970.63;;;-1.54;89.56
60589;BME280;46421;48.610;9.334;2023-01-19T00:23:32;96966.03;;;-1.83;92.31
60589;BME280;46421;48.610;9.334;2023-01-19T00:25:58;96971.03;;;-1.70;91.38
60589;BME280;46421;48.610;9.334;2023-01-19T00:28:23;96965.66;;;-1.57;91.08
60589;BME280;46421;48.610;9.334;2023-01-19T00:30:49;96979.72;;;-1.49;90.30
60589;BME280;46421;48.610;9.334;2023-01-19T00:33:14;96964.66;;;-1.78;91.30
60589;BME280;46421;48.610;9.334;2023-01-19T00:35:40;96981.44;;;-1.70;90.81
60589;BME280;46421;48.610;9.334;2023-01-19T00:38:10;96981.00;;;-1.76;90.43
60589;BME280;46421;48.610;9.334;2023-01-19T00:40:35;96987.59;;;-1.93;89.41
60589;BME280;46421;48.610;9.334;2023-01-19T00:43:01;96983.22;;;-2.36;91.94
60589;BME280;46421;48.610;9.334;2023-01-19T00:45:27;96983.78;;;-2.21;92.84
60589;BME280;46421;48.610;9.334;2023-01-19T00:47:52;96976.63;;;-2.08;92.08
60589;BME280;46421;48.610;9.334;2023-01-19T00:50:22;96982.56;;;-2.05;91.90
60589;BME280;46421;48.610;9.334;2023-01-19T00:52:47;96987.25;;;-1.99;90.97
60589;BME280;46421;48.610;9.334;2023-01-19T00:55:13;96974.81;;;-1.96;89.71
60589;BME280;46421;48.610;9.334;2023-01-19T00:57:40;96985.09;;;-1.94;91.14
60589;BME280;46421;48.610;9.334;2023-01-19T01:00:08;96981.03;;;-2.19;89.97
60589;BME280;46421;48.610;9.334;2023-01-19T01:02:36;96980.69;;;-2.15;91.61
60589;BME280;46421;48.610;9.334;2023-01-19T01:05:03;96983.88;;;-2.11;90.15
60589;BME280;46421;48.610;9.334;2023-01-19T01:07:31;96984.91;;;-2.46;92.68
60589;BME280;46421;48.610;9.334;2023-01-19T01:09:59;96988.78;;;-2.41;93.70
60589;BME280;46421;48.610;9.334;2023-01-19T01:12:25;96990.88;;;-2.12;92.29
60589;BME280;46421;48.610;9.334;2023-01-19T01:14:50;96989.56;;;-2.17;92.53
60589;BME280;46421;48.610;9.334;2023-01-19T01:17:16;96991.88;;;-1.92;90.75
60589;BME280;46421;48.610;9.334;2023-01-19T01:19:41;96998.81;;;-1.81;90.56
60589;BME280;46421;48.610;9.334;2023-01-19T01:22:08;96999.31;;;-1.87;88.88
60589;BME280;46421;48.610;9.334;2023-01-19T01:24:33;96995.78;;;-1.97;88.49
60589;BME280;46421;48.610;9.334;2023-01-19T01:26:59;97004.78;;;-2.01;89.56
60589;BME280;46421;48.610;9.334;2023-01-19T01:29:24;96991.81;;;-2.13;91.00
60589;BME280;46421;48.610;9.334;2023-01-19T01:31:50;96994.84;;;-1.96;89.71
60589;BME280;46421;48.610;9.334;2023-01-19T01:34:15;96995.56;;;-2.05;89.88
60589;BME280;46421;48.610;9.334;2023-01-19T01:36:41;96994.78;;;-2.17;89.66
60589;BME280;46421;48.610;9.334;2023-01-19T01:39:06;96992.19;;;-2.29;92.71
60589;BME280;46421;48.610;9.334;2023-01-19T01:41:32;97000.84;;;-2.28;91.01
60589;BME280;46421;48.610;9.334;2023-01-19T01:43:58;96983.56;;;-2.41;90.49
60589;BME280;46421;48.610;9.334;2023-01-19T01:46:27;96995.34;;;-2.14;91.66
60589;BME280;46421;48.610;9.334;2023-01-19T01:49:03;97001.50;;;-2.03;91.77
60589;BME280;46421;48.610;9.334;2023-01-19T01:51:39;96999.78;;;-1.93;89.18
60589;BME280;46421;48.610;9.334;2023-01-19T01:54:17;96997.22;;;-2.04;89.45
60589;BME280;46421;48.610;9.334;2023-01-19T01:56:49;97006.22;;;-2.09;88.49
60589;BME280;46421;48.610;9.334;2023-01-19T01:59:22;97003.41;;;-2.17;89.57
60589;BME280;46421;48.610;9.334;2023-01-19T02:01:55;97006.84;;;-2.16;90.11
60589;BME280;46421;48.610;9.334;2023-01-19T02:04:42;97016.69;;;-2.31;92.40
60589;BME280;46421;48.610;9.334;2023-01-19T02:07:13;97008.56;;;-2.49;90.82
60589;BME280;46421;48.610;9.334;2023-01-19T02:10:00;97013.03;;;-2.51;90.89
60589;BME280;46421;48.610;9.334;2023-01-19T02:12:45;97007.03;;;-2.86;91.06
60589;BME280;46421;48.610;9.334;2023-01-19T02:15:29;97003.34;;;-2.83;92.61
60589;BME280;46421;48.610;9.334;2023-01-19T02:17:55;97010.22;;;-2.60;93.82
60589;BME280;46421;48.610;9.334;2023-01-19T02:20:24;97009.84;;;-2.44;90.42
60589;BME280;46421;48.610;9.334;2023-01-19T02:22:54;97010.47;;;-2.63;91.80
60589;BME280;46421;48.610;9.334;2023-01-19T02:25:21;97008.44;;;-2.71;91.69
60589;BME280;46421;48.610;9.334;2023-01-19T02:27:48;97001.47;;;-2.47;92.07
60589;BME280;46421;48.610;9.334;2023-01-19T02:30:15;97011.63;;;-2.33;91.39
60589;BME280;46421;48.610;9.334;2023-01-19T02:32:41;96994.34;;;-2.34;90.52
60589;BME280;46421;48.610;9.334;2023-01-19T02:35:07;97005.38;;;-2.42;90.69
60589;BME280;46421;48.610;9.334;2023-01-19T02:37:35;97007.56;;;-2.26;88.56
60589;BME280;46421;48.610;9.334;2023-01-19T02:40:03;97005.81;;;-2.36;88.50
60589;BME280;46421;48.610;9.334;2023-01-19T02:42:47;96999.69;;;-2.47;89.36
60589;BME280;46421;48.610;9.334;2023-01-19T02:45:16;97008.53;;;-2.27;88.40
60589;BME280;46421;48.610;9.334;2023-01-19T02:47:46;97006.28;;;-2.31;88.10
60589;BME280;46421;48.610;9.334;2023-01-19T02:53:08;97007.72;;;-2.39;89.23
60589;BME280;46421;48.610;9.334;2023-01-19T02:55:36;97012.19;;;-2.29;88.42
60589;BME280;46421;48.610;9.334;2023-01-19T02:58:14;97018.09;;;-2.16;90.83
60589;BME280;46421;48.610;9.334;2023-01-19T03:01:08;97018.09;;;-2.16;87.98
60589;BME280;46421;48.610;9.334;2023-01-19T03:09:12;97018.59;;;-2.45;89.67
60589;BME280;46421;48.610;9.334;2023-01-19T03:11:47;97011.78;;;-2.57;89.49
60589;BME280;46421;48.610;9.334;2023-01-19T03:14:19;97019.44;;;-2.67;93.05
60589;BME280;46421;48.610;9.334;2023-01-19T03:16:53;97005.38;;;-2.42;90.21
60589;BME280;46421;48.610;9.334;2023-01-19T03:19:27;97012.09;;;-2.39;88.62
60589;BME280;46421;48.610;9.334;2023-01-19T03:22:05;97021.41;;;-2.25;89.32
60589;BME280;46421;48.610;9.334;2023-01-19T03:24:33;97018.13;;;-2.27;88.82
60589;BME280;46421;48.610;9.334;2023-01-19T03:27:14;97017.75;;;-2.23;89.31
60589;BME280;46421;48.610;9.334;2023-01-19T03:29:46;97014.09;;;-2.31;87.93
60589;BME280;46421;48.610;9.334;2023-01-19T03:32:15;97030.66;;;-2.21;88.93
60589;BME280;46421;48.610;9.334;2023-01-19T03:34:42;97027.47;;;-2.25;87.37
60589;BME280;46421;48.610;9.334;2023-01-19T03:37:10;97040.38;;;-2.34;88.15
60589;BME280;46421;48.610;9.334;2023-01-19T03:39:35;97034.22;;;-2.79;89.11
60589;BME280;46421;48.610;9.334;2023-01-19T03:42:04;97038.59;;;-2.91;91.19
60589;BME280;46421;48.610;9.334;2023-01-19T03:44:32;97041.22;;;-2.79;91.65
60589;BME280;46421;48.610;9.334;2023-01-19T03:46:58;97038.72;;;-2.47;90.41
60589;BME280;46421;48.610;9.334;2023-01-19T03:49:24;97043.34;;;-2.39;88.06
60589;BME280;46421;48.610;9.334;2023-01-19T03:51:54;97039.66;;;-2.36;90.30
60589;BME280;46421;48.610;9.334;2023-01-19T03:54:19;97046.03;;;-2.41;88.87
60589;BME280;46421;48.610;9.334;2023-01-19T03:56:45;97039.22;;;-2.42;89.34
60589;BME280;46421;48.610;9.334;2023-01-19T03:59:10;97035.28;;;-2.59;88.91
60589;BME280;46421;48.610;9.334;2023-01-19T04:01:35;97032.81;;;-2.49;88.61
60589;BME280;46421;48.610;9.334;2023-01-19T04:04:01;97034.94;;;-2.54;89.00
60589;BME280;46421;48.610;9.334;2023-01-19T04:06:26;97031.25;;;-2.40;89.86
60589;BME280;46421;48.610;9.334;2023-01-19T04:08:52;97037.41;;;-2.30;88.59
60589;BME280;46421;48.610;9.334;2023-01-19T04:11:18;97027.22;;;-2.33;87.67
60589;BME280;46421;48.610;9.334;2023-01-19T04:13:43;97032.44;;;-2.33;88.87
60589;BME280;46421;48.610;9.334;2023-01-19T04:16:09;97036.66;;;-2.20;87.64
60589;BME280;46421;48.610;9.334;2023-01-19T04:18:35;97024.94;;;-2.15;87.82
60589;BME280;46421;48.610;9.334;2023-01-19T04:21:05;97024.13;;;-2.15;88.25
60589;BME280;46421;48.610;9.334;2023-01-19T04:23:31;97034.63;;;-2.05;86.64
60589;BME280;46421;48.610;9.334;2023-01-19T04:26:03;97029.69;;;-2.20;85.74
60589;BME280;46421;48.610;9.334;2023-01-19T04:28:31;97041.28;;;-2.13;89.42
60589;BME280;46421;48.610;9.334;2023-01-19T04:30:57;97038.56;;;-2.11;89.56
60589;BME280;46421;48.610;9.334;2023-01-19T04:33:22;97047.63;;;-1.94;87.94
60589;BME280;46421;48.610;9.334;2023-01-19T04:35:49;97051.19;;;-1.95;86.75
60589;BME280;46421;48.610;9.334;2023-01-19T04:38:15;97053.81;;;-1.95;86.62
60589;BME280;46421;48.610;9.334;2023-01-19T04:40:40;97043.41;;;-2.07;84.83
60589;BME280;46421;48.610;9.334;2023-01-19T04:43:06;97047.44;;;-2.14;86.82
60589;BME280;46421;48.610;9.334;2023-01-19T04:45:32;97042.50;;;-2.40;84.41
60589;BME280;46421;48.610;9.334;2023-01-19T04:47:57;97043.94;;;-2.58;86.28
60589;BME280;46421;48.610;9.334;2023-01-19T04:50:22;97055.28;;;-2.82;86.66
60589;BME280;46421;48.610;9.334;2023-01-19T04:52:49;97048.19;;;-2.91;87.13
60589;BME280;46421;48.610;9.334;2023-01-19T04:55:15;97055.03;;;-2.90;88.32
60589;BME280;46421;48.610;9.334;2023-01-19T04:57:41;97051.38;;;-2.88;88.37
60589;BME280;46421;48.610;9.334;2023-01-19T05:00:07;97055.38;;;-2.83;88.36
60589;BME280;46421;48.610;9.334;2023-01-19T05:02:33;97054.09;;;-2.66;89.73
60589;BME280;46421;48.610;9.334;2023-01-19T05:04:59;97054.00;;;-2.53;89.22
60589;BME280;46421;48.610;9.334;2023-01-19T05:07:25;97066.88;;;-2.41;88.11
60589;BME280;46421;48.610;9.334;2023-01-19T05:09:50;97062.84;;;-2.22;87.11
60589;BME280;46421;48.610;9.334;2023-01-19T05:12:15;97055.16;;;-2.58;86.26
60589;BME280;46421;48.610;9.334;2023-01-19T05:14:41;97059.66;;;-2.48;85.72
60589;BME280;46421;48.610;9.334;2023-01-19T05:17:07;97060.13;;;-2.66;85.59
60589;BME280;46421;48.610;9.334;2023-01-19T05:19:33;97064.50;;;-2.55;88.19
60589;BME280;46421;48.610;9.334;2023-01-19T05:21:58;97056.56;;;-2.88;88.29
60589;BME280;46421;48.610;9.334;2023-01-19T05:24:24;97068.53;;;-2.74;88.34
60589;BME280;46421;48.610;9.334;2023-01-19T05:26:49;97073.13;;;-2.66;88.81
60589;BME280;46421;48.610;9.334;2023-01-19T05:29:14;97063.09;;;-2.48;88.39
60589;BME280;46421;48.610;9.334;2023-01-19T05:31:40;97079.66;;;-2.26;87.47
60589;BME280;46421;48.610;9.334;2023-01-19T05:34:06;97074.56;;;-2.39;87.94
60589;BME280;46421;48.610;9.334;2023-01-19T05:36:31;97078.50;;;-2.33;86.82
60589;BME280;46421;48.610;9.334;2023-01-19T05:38:57;97070.91;;;-2.48;86.41
60589;BME280;46421;48.610;9.334;2023-01-19T05:41:22;97073.59;;;-2.27;88.74
60589;BME280;46421;48.610;9.334;2023-01-19T05:43:48;97077.19;;;-2.39;86.40
60589;BME280;46421;48.610;9.334;2023-01-19T05:46:14;97081.69;;;-2.30;86.45
60589;BME280;46421;48.610;9.334;2023-01-19T05:48:39;97066.88;;;-2.41;88.38
60589;BME280;46421;48.610;9.334;2023-01-19T05:51:05;97080.97;;;-2.32;86.87
60589;BME280;46421;48.610;9.334;2023-01-19T05:53:30;97076.94;;;-2.59;86.65
60589;BME280;46421;48.610;9.334;2023-01-19T05:56:03;97079.53;;;-2.59;86.30
60589;BME280;46421;48.610;9.334;2023-01-19T05:58:29;97078.47;;;-2.56;87.63
60589;BME280;46421;48.610;9.334;2023-01-19T06:00:55;97082.81;;;-2.68;88.46
60589;BME280;46421;48.610;9.334;2023-01-19T06:03:20;97084.41;;;-2.65;87.33
60589;BME280;46421;48.610;9.334;2023-01-19T06:05:45;97078.13;;;-2.63;87.49
60589;BME280;46421;48.610;9.334;2023-01-19T06:08:11;97087.84;;;-2.53;87.51
60589;BME280;46421;48.610;9.334;2023-01-19T06:10:36;97091.25;;;-2.64;85.60
60589;BME280;46421;48.610;9.334;2023-01-19T06:13:01;97100.69;;;-2.63;86.31
60589;BME280;46421;48.610;9.334;2023-01-19T06:15:27;97092.66;;;-2.83;87.89
60589;BME280;46421;48.610;9.334;2023-01-19T06:17:52;97087.69;;;-3.22;87.44
60589;BME280;46421;48.610;9.334;2023-01-19T06:20:17;97100.47;;;-3.19;88.75
60589;BME280;46421;48.610;9.334;2023-01-19T06:22:43;97101.84;;;-2.90;87.88
60589;BME280;46421;48.610;9.334;2023-01-19T06:25:09;97099.97;;;-2.88;89.31
60589;BME280;46421;48.610;9.334;2023-01-19T06:27:34;97107.41;;;-2.83;87.04
60589;BME280;46421;48.610;9.334;2023-01-19T06:30:01;97108.13;;;-2.81;86.53
60589;BME280;46421;48.610;9.334;2023-01-19T06:32:26;97114.81;;;-3.02;87.46
60589;BME280;46421;48.610;9.334;2023-01-19T06:34:52;97113.44;;;-2.83;87.66
60589;BME280;46421;48.610;9.334;2023-01-19T06:37:17;97122.66;;;-2.79;86.20
60589;BME280;46421;48.610;9.334;2023-01-19T06:39:43;97113.91;;;-2.89;86.14
60589;BME280;46421;48.610;9.334;2023-01-19T06:42:09;97115.31;;;-2.96;88.52
60589;BME280;46421;48.610;9.334;2023-01-19T06:44:35;97118.28;;;-2.90;86.74
60589;BME280;46421;48.610;9.334;2023-01-19T06:47:00;97111.22;;;-3.23;87.17
60589;BME280;46421;48.610;9.334;2023-01-19T06:49:26;97122.13;;;-3.07;87.56
60589;BME280;46421;48.610;9.334;2023-01-19T06:51:51;97119.94;;;-3.24;86.11
60589;BME280;46421;48.610;9.334;2023-01-19T06:54:16;97126.41;;;-3.30;87.00
60589;BME280;46421;48.610;9.334;2023-01-19T06:56:42;97127.66;;;-3.23;86.87
60589;BME280;46421;48.610;9.334;2023-01-19T06:59:07;97126.66;;;-3.33;86.96
60589;BME280;46421;48.610;9.334;2023-01-19T07:01:34;97132.13;;;-3.25;87.55
60589;BME280;46421;48.610;9.334;2023-01-19T07:03:59;97140.28;;;-3.18;89.50
60589;BME280;46421;48.610;9.334;2023-01-19T07:06:25;97140.16;;;-3.52;87.95
60589;BME280;46421;48.610;9.334;2023-01-19T07:08:51;97141.78;;;-3.75;87.09
60589;BME280;46421;48.610;9.334;2023-01-19T07:11:16;97140.75;;;-3.48;87.82
60589;BME280;46421;48.610;9.334;2023-01-19T07:13:42;97141.25;;;-3.43;88.71
60589;BME280;46421;48.610;9.334;2023-01-19T07:16:12;97134.22;;;-3.54;87.53
60589;BME280;46421;48.610;9.334;2023-01-19T07:18:39;97139.44;;;-3.54;88.98
60589;BME280;46421;48.610;9.334;2023-01-19T07:21:05;97134.19;;;-3.66;88.91
60589;BME280;46421;48.610;9.334;2023-01-19T07:23:31;97130.50;;;-3.50;88.89
60589;BME280;46421;48.610;9.334;2023-01-19T07:25:57;97135.13;;;-3.42;89.47
60589;BME280;46421;48.610;9.334;2023-01-19T07:28:23;97147.00;;;-3.27;88.41
60589;BME280;46421;48.610;9.334;2023-01-19T07:30:53;97140.53;;;-3.21;88.20
60589;BME280;46421;48.610;9.334;2023-01-19T07:33:19;97158.28;;;-3.15;87.90
60589;BME280;46421;48.610;9.334;2023-01-19T07:35:47;97154.75;;;-3.03;86.73
60589;BME280;46421;48.610;9.334;2023-01-19T07:38:13;97153.00;;;-3.26;87.68
60589;BME280;46421;48.610;9.334;2023-01-19T07:40:38;97162.25;;;-3.22;86.38
60589;BME280;46421;48.610;9.334;2023-01-19T07:43:04;97159.50;;;-3.32;86.79
60589;BME280;46421;48.610;9.334;2023-01-19T07:45:29;97167.69;;;-3.25;88.25
60589;BME280;46421;48.610;9.334;2023-01-19T07:47:55;97159.97;;;-3.03;86.06
60589;BME280;46421;48.610;9.334;2023-01-19T07:50:20;97163.88;;;-2.97;85.40
60589;BME280;46421;48.610;9.334;2023-01-19T07:52:49;97163.00;;;-2.84;84.89
60589;BME280;46421;48.610;9.334;2023-01-19T07:55:17;97162.94;;;-2.96;83.98
60589;BME280;46421;48.610;9.334;2023-01-19T07:57:43;97159.81;;;-2.88;83.49
60589;BME280;46421;48.610;9.334;2023-01-19T08:00:08;97165.09;;;-2.90;85.20
60589;BME280;46421;48.610;9.334;2023-01-19T08:02:34;97169.69;;;-2.93;84.64
60589;BME280;46421;48.610;9.334;2023-01-19T08:05:00;97174.41;;;-2.51;84.67
60589;BME280;46421;48.610;9.334;2023-01-19T08:07:25;97169.66;;;-2.58;84.23
60589;BME280;46421;48.610;9.334;2023-01-19T08:09:51;97187.09;;;-2.35;80.89
60589;BME280;46421;48.610;9.334;2023-01-19T08:12:16;97173.47;;;-2.50;83.49
60589;BME280;46421;48.610;9.334;2023-01-19T08:14:42;97169.78;;;-2.48;82.90
60589;BME280;46421;48.610;9.334;2023-01-19T08:17:11;97175.03;;;-2.25;82.74
60589;BME280;46421;48.610;9.334;2023-01-19T08:19:37;97155.84;;;-2.24;80.75
60589;BME280;46421;48.610;9.334;2023-01-19T08:22:03;97178.09;;;-2.31;79.40
60589;BME280;46421;48.610;9.334;2023-01-19T08:24:28;97174.56;;;-1.96;78.58
60589;BME280;46421;48.610;9.334;2023-01-19T08:27:00;97174.00;;;-1.33;78.33
60589;BME280;46421;48.610;9.334;2023-01-19T08:29:27;97176.44;;;-1.76;78.28
60589;BME280;46421;48.610;9.334;2023-01-19T08:31:55;97173.25;;;-2.13;80.75
60589;BME280;46421;48.610;9.334;2023-01-19T08:34:23;97182.13;;;0.92;71.09
60589;BME280;46421;48.610;9.334;2023-01-19T08:36:48;97182.81;;;0.94;68.38
60589;BME280;46421;48.610;9.334;2023-01-19T08:39:13;97175.94;;;-0.82;74.77
60589;BME280;46421;48.610;9.334;2023-01-19T08:41:39;97182.81;;;-0.38;70.69
60589;BME280;46421;48.610;9.334;2023-01-19T08:44:04;97182.03;;;-0.29;70.43
60589;BME280;46421;48.610;9.334;2023-01-19T08:46:30;97187.25;;;-0.92;71.34
60589;BME280;46421;48.610;9.334;2023-01-19T08:48:56;97190.69;;;-0.92;72.36
60589;BME280;46421;48.610;9.334;2023-01-19T08:51:24;97186.09;;;-1.32;73.18
60589;BME280;46421;48.610;9.334;2023-01-19T08:53:49;97194.28;;;-1.48;74.48
60589;BME280;46421;48.610;9.334;2023-01-19T08:56:15;97195.63;;;-1.77;76.70
60589;BME280;46421;48.610;9.334;2023-01-19T08:58:42;97198.63;;;-1.93;77.75
60589;BME280;46421;48.610;9.334;2023-01-19T09:01:08;97197.66;;;-1.80;77.18
60589;BME280;46421;48.610;9.334;2023-01-19T09:03:35;97199.56;;;-1.94;76.83
60589;BME280;46421;48.610;9.334;2023-01-19T09:06:01;97193.34;;;-2.61;77.29
60589;BME280;46421;48.610;9.334;2023-01-19T09:08:27;97196.59;;;-1.89;76.80
60589;BME280;46421;48.610;9.334;2023-01-19T09:10:52;97208.34;;;-1.28;74.71
60589;BME280;46421;48.610;9.334;2023-01-19T09:13:18;97207.28;;;-0.93;73.97
60589;BME280;46421;48.610;9.334;2023-01-19T09:15:45;97209.19;;;-1.28;75.83
60589;BME280;46421;48.610;9.334;2023-01-19T09:18:16;97209.00;;;-1.03;74.19
60589;BME280;46421;48.610;9.334;2023-01-19T09:20:43;97214.75;;;-0.04;72.76
60589;BME280;46421;48.610;9.334;2023-01-19T09:23:11;97223.47;;;1.08;68.48
60589;BME280;46421;48.610;9.334;2023-01-19T09:25:37;97219.66;;;0.61;66.46
60589;BME280;46421;48.610;9.334;2023-01-19T09:28:07;97226.47;;;0.33;67.73
60589;BME280;46421;48.610;9.334;2023-01-19T09:30:33;97228.56;;;0.08;68.16
60589;BME280;46421;48.610;9.334;2023-01-19T09:33:05;97223.03;;;-0.62;71.63
60589;BME280;46421;48.610;9.334;2023-01-19T09:35:34;97210.38;;;-0.45;71.34
60589;BME280;46421;48.610;9.334;2023-01-19T09:38:01;97209.25;;;-0.32;71.88
60589;BME280;46421;48.610;9.334;2023-01-19T09:40:27;97215.22;;;-0.20;70.86
60589;BME280;46421;48.610;9.334;2023-01-19T09:42:56;97213.06;;;0.17;68.53
60589;BME280;46421;48.610;9.334;2023-01-19T09:45:33;97214.34;;;0.01;67.88
60589;BME280;46421;48.610;9.334;2023-01-19T09:48:01;97214.91;;;0.36;67.84
60589;BME280;46421;48.610;9.334;2023-01-19T09:50:37;97210.09;;;0.31;69.20
60589;BME280;46421;48.610;9.334;2023-01-19T09:53:14;97215.34;;;0.31;67.44
60589;BME280;46421;48.610;9.334;2023-01-19T09:55:42;97206.09;;;0.37;67.90
60589;BME280;46421;48.610;9.334;2023-01-19T09:58:15;97202.94;;;0.93;65.95
60589;BME280;46421;48.610;9.334;2023-01-19T10:00:47;97204.75;;;1.03;65.68
60589;BME280;46421;48.610;9.334;2023-01-19T10:03:15;97201.16;;;1.14;63.68
60589;BME280;46421;48.610;9.334;2023-01-19T10:05:43;97209.53;;;0.98;65.04
60589;BME280;46421;48.610;9.334;2023-01-19T10:08:18;97204.44;;;1.35;64.36
60589;BME280;46421;48.610;9.334;2023-01-19T10:10:52;97194.06;;;2.20;63.67
60589;BME280;46421;48.610;9.334;2023-01-19T10:13:46;97202.38;;;2.72;61.10
60589;BME280;46421;48.610;9.334;2023-01-19T10:19:21;97209.16;;;1.51;63.91
60589;BME280;46421;48.610;9.334;2023-01-19T10:21:49;97204.75;;;1.32;65.93
60589;BME280;46421;48.610;9.334;2023-01-19T10:24:28;97201.84;;;2.02;63.38
60589;BME280;46421;48.610;9.334;2023-01-19T10:26:57;97189.63;;;3.13;61.19
60589;BME280;46421;48.610;9.334;2023-01-19T10:29:29;97200.13;;;2.77;62.54
60589;BME280;46421;48.610;9.334;2023-01-19T10:32:14;97206.81;;;2.89;62.07
60589;BME280;46421;48.610;9.334;2023-01-19T10:34:45;97198.63;;;3.28;60.70
60589;BME280;46421;48.610;9.334;2023-01-19T10:39:43;97189.94;;;3.10;60.02
60589;BME280;46421;48.610;9.334;2023-01-19T10:42:12;97194.81;;;3.23;60.32
60589;BME280;46421;48.610;9.334;2023-01-19T10:44:39;97187.16;;;3.11;61.12
60589;BME280;46421;48.610;9.334;2023-01-19T10:47:13;97194.59;;;2.80;59.74
60589;BME280;46421;48.610;9.334;2023-01-19T10:49:40;97196.28;;;2.71;59.60
60589;BME280;46421;48.610;9.334;2023-01-19T10:52:30;97203.31;;;2.15;59.40
60589;BME280;46421;48.610;9.334;2023-01-19T10:54:58;97197.06;;;1.88;62.79
60589;BME280;46421;48.610;9.334;2023-01-19T10:57:27;97200.81;;;1.76;62.17
60589;BME280;46421;48.610;9.334;2023-01-19T10:59:55;97195.31;;;1.79;62.45
60589;BME280;46421;48.610;9.334;2023-01-19T11:02:28;97192.22;;;1.83;62.41
60589;BME280;46421;48.610;9.334;2023-01-19T11:05:02;97191.19;;;1.66;64.49
60589;BME280;46421;48.610;9.334;2023-01-19T11:07:45;97192.31;;;1.44;64.18
60589;BME280;46421;48.610;9.334;2023-01-19T11:13:02;97197.84;;;1.12;66.20
60589;BME280;46421;48.610;9.334;2023-01-19T11:15:39;97201.84;;;1.16;65.92
60589;BME280;46421;48.610;9.334;2023-01-19T11:18:05;97200.31;;;1.33;66.49
60589;BME280;46421;48.610;9.334;2023-01-19T11:20:52;97199.22;;;1.25;65.09
60589;BME280;46421;48.610;9.334;2023-01-19T11:23:23;97201.97;;;1.34;65.80
60589;BME280;46421;48.610;9.334;2023-01-19T11:25:51;97190.41;;;0.87;68.88
60589;BME280;46421;48.610;9.334;2023-01-19T11:28:33;97193.66;;;0.50;69.20
60589;BME280;46421;48.610;9.334;2023-01-19T11:31:16;97191.47;;;0.75;69.88
60589;BME280;46421;48.610;9.334;2023-01-19T11:33:48;97195.19;;;0.62;70.25
60589;BME280;46421;48.610;9.334;2023-01-19T11:36:16;97196.13;;;0.61;69.66
60589;BME280;46421;48.610;9.334;2023-01-19T11:38:44;97179.94;;;0.27;70.30
60589;BME280;46421;48.610;9.334;2023-01-19T11:41:17;97188.75;;;0.76;70.48
60589;BME280;46421;48.610;9.334;2023-01-19T11:43:44;97185.00;;;0.69;69.75
60589;BME280;46421;48.610;9.334;2023-01-19T11:46:13;97177.44;;;0.76;70.65
60589;BME280;46421;48.610;9.334;2023-01-19T11:48:44;97180.75;;;0.88;69.58
60589;BME280;46421;48.610;9.334;2023-01-19T11:51:15;97179.81;;;1.08;70.14
60589;BME280;46421;48.610;9.334;2023-01-19T11:53:50;97186.28;;;1.04;68.25
60589;BME280;46421;48.610;9.334;2023-01-19T11:56:16;97188.47;;;1.09;68.26
60589;BME280;46421;48.610;9.334;2023-01-19T11:58:43;97181.31;;;1.21;67.58
60589;BME280;46421;48.610;9.334;2023-01-19T12:01:23;97175.59;;;0.57;69.27
60589;BME280;46421;48.610;9.334;2023-01-19T12:06:34;97173.59;;;0.80;69.83
60589;BME280;46421;48.610;9.334;2023-01-19T12:09:04;97178.41;;;1.14;68.60
60589;BME280;46421;48.610;9.334;2023-01-19T12:11:57;97169.47;;;0.87;69.36
60589;BME280;46421;48.610;9.334;2023-01-19T12:14:34;97161.03;;;1.13;68.95
60589;BME280;46421;48.610;9.334;2023-01-19T12:17:04;97163.53;;;1.15;69.99
60589;BME280;46421;48.610;9.334;2023-01-19T12:19:55;97169.31;;;0.99;71.49
60589;BME280;46421;48.610;9.334;2023-01-19T12:22:26;97173.03;;;1.06;68.35
60589;BME280;46421;48.610;9.334;2023-01-19T12:25:11;97175.25;;;1.10;68.31
60589;BME280;46421;48.610;9.334;2023-01-19T12:27:40;97163.41;;;1.16;67.27
60589;BME280;46421;48.610;9.334;2023-01-19T12:30:26;97174.97;;;1.23;68.60
60589;BME280;46421;48.610;9.334;2023-01-19T12:38:49;97161.47;;;0.89;70.28
60589;BME280;46421;48.610;9.334;2023-01-19T12:41:20;97172.50;;;1.22;69.02
60589;BME280;46421;48.610;9.334;2023-01-19T12:43:48;97170.00;;;1.30;68.92
60589;BME280;46421;48.610;9.334;2023-01-19T12:46:33;97169.44;;;1.36;69.08
60589;BME280;46421;48.610;9.334;2023-01-19T12:49:08;97172.63;;;1.40;68.99
60589;BME280;46421;48.610;9.334;2023-01-19T12:51:35;97167.25;;;1.22;68.37
60589;BME280;46421;48.610;9.334;2023-01-19T12:54:03;97172.75;;;1.19;69.66
60589;BME280;46421;48.610;9.334;2023-01-19T12:56:33;97169.31;;;0.89;71.04
60589;BME280;46421;48.610;9.334;2023-01-19T12:59:00;97180.06;;;1.25;71.68
60589;BME280;46421;48.610;9.334;2023-01-19T13:01:26;97164.22;;;0.97;70.32
60589;BME280;46421;48.610;9.334;2023-01-19T13:04:05;97164.22;;;0.97;71.20
60589;BME280;46421;48.610;9.334;2023-01-19T13:09:34;97163.13;;;1.00;72.47
60589;BME280;46421;48.610;9.334;2023-01-19T13:14:40;97166.69;;;0.89;71.47
60589;BME280;46421;48.610;9.334;2023-01-19T13:17:16;97162.41;;;0.98;72.66
60589;BME280;46421;48.610;9.334;2023-01-19T13:19:47;97163.69;;;0.84;72.67
60589;BME280;46421;48.610;9.334;2023-01-19T13:22:51;97168.91;;;0.93;73.08
60589;BME280;46421;48.610;9.334;2023-01-19T13:25:30;97169.06;;;0.92;73.42
60589;BME280;46421;48.610;9.334;2023-01-19T13:27:58;97165.44;;;0.63;72.76
60589;BME280;46421;48.610;9.334;2023-01-19T13:30:26;97156.63;;;0.74;72.79
60589;BME280;46421;48.610;9.334;2023-01-19T13:32:55;97161.72;;;0.76;72.58
60589;BME280;46421;48.610;9.334;2023-01-19T13:35:22;97161.19;;;0.72;74.06
60589;BME280;46421;48.610;9.334;2023-01-19T13:37:49;97158.56;;;0.82;73.71
60589;BME280;46421;48.610;9.334;2023-01-19T13:40:21;97156.78;;;0.83;73.35
60589;BME280;46421;48.610;9.334;2023-01-19T13:42:48;97169.72;;;0.84;73.14